Time;durP1;ratioP1;P1;durP2;ratioP2;P2;SDS_P1;SDS_P2;PMS_P1;PMS_P2;Temp;Humidity;BMP_temperature;BMP_pressure;BME280_temperature;BME280_humidity;BME280_pressure;Samples;Min_cycle;Max_cycle;Signal;HPM_P1;HPM_P2
2022/02/06 00:00:34;;;;;;;9.88;3.00;;;8.00;99.90;;;;;;5025438;28;20040;-75
2022/02/06 00:03:00;;;;;;;15.85;2.95;;;8.00;99.90;;;;;;5036110;28;20487;-74
2022/02/06 00:05:25;;;;;;;11.30;3.30;;;8.00;99.90;;;;;;5038948;28;20376;-75
2022/02/06 00:07:51;;;;;;;10.60;2.53;;;8.00;99.90;;;;;;5039256;28;20037;-74
2022/02/06 00:10:18;;;;;;;13.73;3.10;;;8.10;99.90;;;;;;5037843;28;20057;-75
2022/02/06 00:12:44;;;;;;;17.38;3.05;;;8.00;99.90;;;;;;5039645;28;20033;-75
2022/02/06 00:15:09;;;;;;;9.77;2.90;;;7.90;99.90;;;;;;5022105;28;20088;-74
2022/02/06 00:17:35;;;;;;;16.20;3.45;;;8.00;99.90;;;;;;5038313;28;20068;-74
2022/02/06 00:20:02;;;;;;;11.32;2.67;;;8.00;99.90;;;;;;5035791;28;20749;-74
2022/02/06 00:22:39;;;;;;;16.80;3.75;;;8.10;99.90;;;;;;5021141;28;20041;-74
2022/02/06 00:30:37;;;;;;;14.15;3.05;;;8.10;99.90;;;;;;5036064;28;20083;-74
2022/02/06 00:35:58;;;;;;;15.23;3.20;;;8.20;99.90;;;;;;5039441;28;20518;-74
2022/02/06 00:41:13;;;;;;;21.42;4.13;;;8.20;99.90;;;;;;5036834;28;20045;-74
2022/02/06 00:43:39;;;;;;;15.18;2.78;;;8.30;99.90;;;;;;5021385;28;20041;-74
2022/02/06 00:46:07;;;;;;;14.90;3.20;;;8.20;99.90;;;;;;5021957;28;20037;-74
2022/02/06 00:48:36;;;;;;;14.13;3.53;;;8.20;99.90;;;;;;5037115;28;20041;-74
2022/02/06 00:51:27;;;;;;;20.40;3.53;;;8.20;99.90;;;;;;5020624;28;20052;-76
2022/02/06 00:53:52;;;;;;;20.95;3.75;;;8.30;99.90;;;;;;5038853;28;20047;-75
2022/02/06 00:56:18;;;;;;;22.80;4.97;;;8.20;99.90;;;;;;5037015;28;20033;-76
2022/02/06 00:58:44;;;;;;;19.30;3.50;;;8.20;99.90;;;;;;5038462;28;20042;-75
2022/02/06 01:01:10;;;;;;;17.60;3.70;;;8.20;99.90;;;;;;5037586;28;20557;-75
2022/02/06 01:03:35;;;;;;;18.55;3.78;;;8.20;99.90;;;;;;5038652;28;20470;-76
2022/02/06 01:06:01;;;;;;;22.30;4.78;;;8.20;99.90;;;;;;5020971;28;20521;-75
2022/02/06 01:08:27;;;;;;;20.95;4.00;;;8.20;99.90;;;;;;5036374;28;20041;-76
2022/02/06 01:10:53;;;;;;;18.42;3.75;;;8.20;99.90;;;;;;5040851;28;20103;-76
2022/02/06 01:16:14;;;;;;;17.83;4.38;;;8.20;99.90;;;;;;5040996;28;20418;-75
2022/02/06 01:18:36;;;;;;;17.27;3.30;;;8.20;99.90;;;;;;5038509;28;20041;-74
2022/02/06 01:21:21;;;;;;;22.20;3.67;;;8.20;99.90;;;;;;5036890;28;20087;-74
2022/02/06 01:23:57;;;;;;;18.23;4.03;;;8.20;99.90;;;;;;5022969;28;20056;-75
2022/02/06 01:26:38;;;;;;;19.00;3.70;;;8.30;99.90;;;;;;5038158;28;20091;-75
2022/02/06 01:32:00;;;;;;;17.58;3.47;;;8.30;99.90;;;;;;5036072;28;20053;-74
2022/02/06 01:37:07;;;;;;;21.77;4.85;;;8.30;99.90;;;;;;5039285;28;20057;-75
2022/02/06 01:42:23;;;;;;;29.25;4.82;;;8.30;99.90;;;;;;5040822;28;20045;-75
2022/02/06 01:45:08;;;;;;;24.85;4.60;;;8.20;99.90;;;;;;5045373;28;20532;-75
2022/02/06 02:01:53;;;;;;;21.45;4.50;;;8.20;99.90;;;;;;5004648;28;20038;-76
2022/02/06 02:17:33;;;;;;;18.83;3.83;;;8.20;99.90;;;;;;5041288;28;20304;-77
2022/02/06 02:28:00;;;;;;;17.45;4.30;;;8.30;99.90;;;;;;5042356;28;20048;-75
2022/02/06 02:44:55;;;;;;;24.85;4.72;;;8.30;99.90;;;;;;5038452;28;20490;-74
2022/02/06 02:47:17;;;;;;;20.45;3.35;;;8.30;99.90;;;;;;5039595;28;20056;-74
2022/02/06 02:49:51;;;;;;;25.70;4.93;;;8.40;99.90;;;;;;5038313;28;20047;-75
2022/02/06 02:52:31;;;;;;;27.63;4.57;;;8.30;99.90;;;;;;5042303;28;20048;-74
2022/02/06 02:55:16;;;;;;;18.27;4.28;;;8.30;99.90;;;;;;5039605;28;20038;-74
2022/02/06 02:57:51;;;;;;;9.82;2.90;;;8.40;99.90;;;;;;5039163;28;20048;-75
2022/02/06 03:00:54;;;;;;;17.13;3.85;;;8.30;99.90;;;;;;5044898;28;20380;-75
2022/02/06 03:03:30;;;;;;;22.85;3.95;;;8.30;99.90;;;;;;5055284;28;20052;-77
2022/02/06 03:05:57;;;;;;;21.25;4.18;;;8.30;99.90;;;;;;5025286;28;20037;-75
2022/02/06 03:08:23;;;;;;;18.17;4.20;;;8.40;99.90;;;;;;5038085;28;20151;-75
2022/02/06 03:10:51;;;;;;;20.88;4.35;;;8.30;99.90;;;;;;5041585;28;20136;-75
2022/02/06 03:13:19;;;;;;;17.05;4.15;;;8.30;99.90;;;;;;5035685;28;20084;-75
2022/02/06 03:15:50;;;;;;;16.50;3.15;;;8.30;99.90;;;;;;5038214;28;20073;-75
2022/02/06 03:18:19;;;;;;;16.98;3.53;;;8.30;99.90;;;;;;5038311;28;20466;-74
2022/02/06 03:20:46;;;;;;;20.23;4.70;;;8.30;99.90;;;;;;5021064;28;20033;-74
2022/02/06 03:23:13;;;;;;;23.85;4.18;;;8.40;99.90;;;;;;5024153;28;20479;-74
2022/02/06 03:26:13;;;;;;;24.95;4.55;;;8.40;99.90;;;;;;5037678;28;20033;-74
2022/02/06 03:28:32;;;;;;;19.13;4.53;;;8.40;99.90;;;;;;5037303;28;20580;-74
2022/02/06 03:30:57;;;;;;;19.50;3.67;;;8.40;99.90;;;;;;5041112;28;20033;-74
2022/02/06 03:33:23;;;;;;;20.83;4.43;;;8.40;99.90;;;;;;5037412;28;20040;-74
2022/02/06 03:35:48;;;;;;;17.50;3.72;;;8.40;99.90;;;;;;5038163;28;20131;-74
2022/02/06 03:38:14;;;;;;;18.58;4.00;;;8.40;99.90;;;;;;5050217;28;20524;-74
2022/02/06 03:40:47;;;;;;;17.30;3.10;;;8.40;99.90;;;;;;5058723;28;20039;-74
2022/02/06 03:43:26;;;;;;;15.25;3.45;;;8.40;99.90;;;;;;5041389;28;20601;-74
2022/02/06 03:45:58;;;;;;;16.85;3.53;;;8.50;99.90;;;;;;5026398;28;20055;-75
2022/02/06 03:48:31;;;;;;;;;;;8.40;99.90;;;;;;5023152;28;20048;-74
2022/02/06 03:51:01;;;;;;;22.73;3.97;;;8.50;99.90;;;;;;5040144;28;19925;-74
2022/02/06 03:53:29;;;;;;;18.85;4.10;;;8.50;99.90;;;;;;5040131;28;20045;-74
2022/02/06 03:55:54;;;;;;;18.52;3.58;;;8.40;99.90;;;;;;5039008;28;20052;-74
2022/02/06 03:58:20;;;;;;;17.08;4.40;;;8.50;99.90;;;;;;5045102;28;20041;-75
2022/02/06 04:00:46;;;;;;;19.15;3.72;;;8.50;99.90;;;;;;5021654;28;20065;-74
2022/02/06 04:03:12;;;;;;;20.60;4.38;;;8.40;99.90;;;;;;5042594;28;20041;-74
2022/02/06 04:05:38;;;;;;;12.13;2.97;;;8.40;99.90;;;;;;5043142;28;20049;-74
2022/02/06 04:08:07;;;;;;;22.77;4.25;;;8.50;99.90;;;;;;5037683;28;20032;-74
2022/02/06 04:10:41;;;;;;;14.40;3.08;;;8.40;99.90;;;;;;5037845;28;20034;-74
2022/02/06 04:13:07;;;;;;;18.52;3.80;;;8.40;99.90;;;;;;5043930;28;20037;-76
2022/02/06 04:15:39;;;;;;;18.38;3.80;;;8.40;99.90;;;;;;5041406;28;20041;-76
2022/02/06 04:18:34;;;;;;;13.82;3.92;;;8.40;99.90;;;;;;5043779;28;20099;-75
2022/02/06 04:20:53;;;;;;;24.77;4.80;;;8.30;99.90;;;;;;5039524;28;20092;-74
2022/02/06 04:23:19;;;;;;;22.27;3.63;;;8.30;99.90;;;;;;5038340;28;20076;-74
2022/02/06 04:25:44;;;;;;;21.92;4.03;;;8.40;99.90;;;;;;5023545;28;20046;-74
2022/02/06 04:28:10;;;;;;;19.95;4.15;;;8.40;99.90;;;;;;5038696;28;20478;-74
2022/02/06 04:30:35;;;;;;;19.35;4.70;;;8.40;99.90;;;;;;5038569;28;20070;-74
2022/02/06 04:33:04;;;;;;;19.48;3.00;;;8.40;99.90;;;;;;5039745;28;20133;-73
2022/02/06 04:35:36;;;;;;;18.42;4.03;;;8.40;99.90;;;;;;5038444;28;20412;-73
2022/02/06 04:40:49;;;;;;;15.48;2.78;;;8.50;99.90;;;;;;5038348;28;20743;-73
2022/02/06 05:20:38;;;;;;;17.55;4.13;;;8.40;99.90;;;;;;5043621;28;20491;-73
2022/02/06 05:28:33;;;;;;;21.33;3.55;;;8.50;99.90;;;;;;5040958;28;20037;-73
2022/02/06 05:33:24;;;;;;;17.90;3.72;;;8.40;99.90;;;;;;5042659;28;20103;-73
2022/02/06 05:35:49;;;;;;;24.13;3.55;;;8.40;99.90;;;;;;5043790;28;20107;-73
2022/02/06 05:38:15;;;;;;;13.40;2.88;;;8.50;99.90;;;;;;5041889;28;20689;-73
2022/02/06 05:40:41;;;;;;;22.40;3.88;;;8.50;99.90;;;;;;5040679;28;20457;-74
2022/02/06 05:43:06;;;;;;;23.48;4.82;;;8.50;99.90;;;;;;5044723;28;20037;-73
2022/02/06 05:45:32;;;;;;;18.77;3.47;;;8.50;99.90;;;;;;5037896;28;20042;-73
2022/02/06 05:47:57;;;;;;;27.17;3.90;;;8.50;99.90;;;;;;5041509;28;20467;-73
2022/02/06 05:50:23;;;;;;;20.02;3.47;;;8.50;99.90;;;;;;5051221;22;20076;-73
2022/02/06 05:52:50;;;;;;;22.25;4.15;;;8.50;99.90;;;;;;5049666;28;20154;-74
2022/02/06 05:55:16;;;;;;;20.58;3.67;;;8.50;99.90;;;;;;5036262;28;20044;-74
2022/02/06 05:57:42;;;;;;;19.52;3.80;;;8.50;99.90;;;;;;5054005;28;20075;-74
2022/02/06 06:00:09;;;;;;;18.35;3.85;;;8.50;99.90;;;;;;5052866;28;20068;-74
2022/02/06 06:02:35;;;;;;;21.55;3.80;;;8.50;99.90;;;;;;5054509;28;20052;-73
2022/02/06 06:05:01;;;;;;;22.73;4.00;;;8.50;99.90;;;;;;5037267;28;20041;-73
2022/02/06 06:07:27;;;;;;;25.98;4.78;;;8.60;99.90;;;;;;5048114;28;20046;-73
2022/02/06 06:09:52;;;;;;;19.75;3.70;;;8.50;99.90;;;;;;5051811;28;20079;-73
2022/02/06 06:12:18;;;;;;;17.10;3.13;;;8.60;99.90;;;;;;5052189;28;20040;-73
2022/02/06 06:14:46;;;;;;;16.42;3.55;;;8.60;99.90;;;;;;5053148;28;20056;-73
2022/02/06 06:17:12;;;;;;;17.60;3.13;;;8.60;99.90;;;;;;5051921;28;20376;-73
2022/02/06 06:19:41;;;;;;;11.90;2.92;;;8.60;99.90;;;;;;5052449;28;20040;-73
2022/02/06 06:22:10;;;;;;;22.95;3.88;;;8.60;99.90;;;;;;5052794;28;20045;-73
2022/02/06 06:24:40;;;;;;;20.42;4.90;;;8.50;99.90;;;;;;5071833;28;20051;-73
2022/02/06 06:27:06;;;;;;;18.42;3.45;;;8.50;99.90;;;;;;5049628;28;20036;-72
2022/02/06 06:29:31;;;;;;;16.40;3.55;;;8.60;99.90;;;;;;5053096;28;20059;-73
2022/02/06 06:31:57;;;;;;;12.60;3.03;;;8.60;99.90;;;;;;5050226;28;20102;-73
2022/02/06 06:34:22;;;;;;;17.48;3.40;;;8.60;99.90;;;;;;5051760;28;20462;-72
2022/02/06 06:36:49;;;;;;;14.35;2.78;;;8.60;99.90;;;;;;5052202;28;20535;-73
2022/02/06 06:39:22;;;;;;;15.75;4.07;;;8.60;99.90;;;;;;5049543;28;20135;-72
2022/02/06 06:41:48;;;;;;;19.00;3.50;;;8.60;99.90;;;;;;5068887;28;20049;-73
2022/02/06 06:44:14;;;;;;;16.38;3.70;;;8.60;99.90;;;;;;5049098;28;20068;-73
2022/02/06 06:46:40;;;;;;;18.55;4.38;;;8.60;99.90;;;;;;5052179;28;20095;-73
2022/02/06 06:49:05;;;;;;;19.92;3.60;;;8.60;99.90;;;;;;5049848;28;20124;-73
2022/02/06 06:51:31;;;;;;;15.80;3.08;;;8.60;99.90;;;;;;5050912;28;20143;-73
2022/02/06 06:53:56;;;;;;;9.93;3.03;;;8.60;99.90;;;;;;5051007;28;20119;-73
2022/02/06 06:56:32;;;;;;;17.52;2.90;;;8.70;99.90;;;;;;5053428;28;20473;-72
2022/02/06 06:58:57;;;;;;;14.43;2.60;;;8.70;99.90;;;;;;5051067;28;20084;-73
2022/02/06 07:01:44;;;;;;;15.70;2.92;;;8.60;99.90;;;;;;5049803;28;20083;-73
2022/02/06 07:04:10;;;;;;;14.77;3.05;;;8.50;99.90;;;;;;5035526;28;20523;-73
2022/02/06 07:06:36;;;;;;;16.83;3.67;;;8.60;99.90;;;;;;5051792;28;20040;-73
2022/02/06 07:09:01;;;;;;;12.80;2.75;;;8.60;99.90;;;;;;5048156;28;20498;-73
2022/02/06 07:11:27;;;;;;;12.00;2.67;;;8.50;99.90;;;;;;5052399;28;20040;-73
2022/02/06 07:13:52;;;;;;;13.05;2.60;;;8.50;99.90;;;;;;5049472;28;20044;-73
2022/02/06 07:16:18;;;;;;;16.45;3.38;;;8.60;99.90;;;;;;5073172;28;20036;-73
2022/02/06 07:18:43;;;;;;;16.13;3.95;;;8.60;99.90;;;;;;5035092;28;20119;-73
2022/02/06 07:21:09;;;;;;;19.85;4.10;;;8.60;99.90;;;;;;5051003;28;20044;-73
2022/02/06 07:23:34;;;;;;;20.90;3.55;;;8.60;99.90;;;;;;5051204;28;20048;-73
2022/02/06 07:26:03;;;;;;;15.43;3.28;;;8.50;99.90;;;;;;5050863;28;20053;-73
2022/02/06 07:28:30;;;;;;;12.75;2.60;;;8.50;99.90;;;;;;5045886;28;20040;-73
2022/02/06 07:30:56;;;;;;;20.13;3.63;;;8.60;99.90;;;;;;5046548;28;20502;-73
2022/02/06 07:33:21;;;;;;;22.45;3.40;;;8.60;99.90;;;;;;5052872;28;20044;-73
2022/02/06 07:35:48;;;;;;;17.52;3.58;;;8.60;99.90;;;;;;5037797;28;20045;-73
2022/02/06 07:38:14;;;;;;;16.00;3.30;;;8.60;99.90;;;;;;5050048;28;20366;-73
2022/02/06 07:40:42;;;;;;;16.45;2.85;;;8.50;99.90;;;;;;5050482;28;20033;-73
2022/02/06 07:43:08;;;;;;;17.02;3.40;;;8.60;99.90;;;;;;5051289;28;20098;-73
2022/02/06 07:45:38;;;;;;;17.35;3.25;;;8.60;99.90;;;;;;5033359;28;20036;-73
2022/02/06 07:48:05;;;;;;;15.60;4.47;;;8.60;99.90;;;;;;5050870;28;20473;-73
2022/02/06 07:50:31;;;;;;;16.58;2.70;;;8.60;99.90;;;;;;5051586;28;20041;-73
2022/02/06 07:52:57;;;;;;;19.83;3.20;;;8.70;99.90;;;;;;5036628;28;20458;-73
2022/02/06 07:55:22;;;;;;;18.85;4.03;;;8.70;99.90;;;;;;5052075;28;20085;-73
2022/02/06 07:57:48;;;;;;;16.73;3.60;;;8.60;99.90;;;;;;5050803;28;20040;-73
2022/02/06 08:00:14;;;;;;;15.27;2.75;;;8.60;99.90;;;;;;5050822;28;20169;-73
2022/02/06 08:02:41;;;;;;;16.38;2.47;;;8.70;99.90;;;;;;5049669;28;20044;-73
2022/02/06 08:05:07;;;;;;;15.73;3.15;;;8.70;99.90;;;;;;5049863;28;20401;-73
2022/02/06 08:07:32;;;;;;;20.77;3.75;;;8.70;99.90;;;;;;5050267;28;20040;-73
2022/02/06 08:10:00;;;;;;;15.77;3.75;;;8.70;99.90;;;;;;5050127;28;20040;-73
2022/02/06 08:12:29;;;;;;;13.48;2.83;;;8.60;99.90;;;;;;5050539;28;20159;-73
2022/02/06 08:14:56;;;;;;;17.63;3.00;;;8.70;99.90;;;;;;5033382;28;20048;-73
2022/02/06 08:17:26;;;;;;;16.98;3.78;;;8.70;99.90;;;;;;5048259;28;20051;-73
2022/02/06 08:19:53;;;;;;;17.23;3.30;;;8.70;99.90;;;;;;5049361;28;20051;-73
2022/02/06 08:22:21;;;;;;;17.65;3.25;;;8.70;99.90;;;;;;5050134;28;20024;-73
2022/02/06 08:24:47;;;;;;;14.35;3.70;;;8.70;99.90;;;;;;5048746;28;20116;-73
2022/02/06 08:27:14;;;;;;;18.50;4.43;;;8.80;99.90;;;;;;5031022;28;20469;-74
2022/02/06 08:29:42;;;;;;;20.85;3.90;;;8.70;99.90;;;;;;5032091;28;20045;-74
2022/02/06 08:32:08;;;;;;;16.80;3.05;;;8.60;99.90;;;;;;5067418;28;20040;-73
2022/02/06 08:34:34;;;;;;;18.23;3.35;;;8.70;99.90;;;;;;5048549;28;20082;-74
2022/02/06 08:37:02;;;;;;;18.98;3.63;;;8.70;99.90;;;;;;5050866;28;20040;-73
2022/02/06 08:39:33;;;;;;;15.45;3.10;;;8.70;99.90;;;;;;5032917;28;20033;-73
2022/02/06 08:42:00;;;;;;;20.33;4.35;;;8.70;99.90;;;;;;5030568;28;20036;-74
2022/02/06 08:44:25;;;;;;;19.30;4.20;;;8.60;99.90;;;;;;5050057;28;20483;-73
2022/02/06 08:46:51;;;;;;;18.23;3.28;;;8.60;99.90;;;;;;5048136;28;20072;-74
2022/02/06 08:49:17;;;;;;;12.20;2.63;;;8.70;99.90;;;;;;5049113;28;20052;-73
2022/02/06 08:51:45;;;;;;;22.45;4.35;;;8.70;99.90;;;;;;5046781;28;20185;-73
2022/02/06 08:54:11;;;;;;;17.67;4.38;;;8.70;99.90;;;;;;5048704;28;20040;-74
2022/02/06 08:56:40;;;;;;;18.48;4.30;;;8.60;99.90;;;;;;5050381;28;20033;-74
2022/02/06 08:59:10;;;;;;;22.45;3.88;;;8.60;99.90;;;;;;5047858;28;20087;-73
2022/02/06 09:01:37;;;;;;;19.33;4.10;;;8.60;99.90;;;;;;5050745;28;20469;-73
2022/02/06 09:04:04;;;;;;;21.15;3.47;;;8.60;99.90;;;;;;5048964;28;20048;-74
2022/02/06 09:06:30;;;;;;;18.20;3.97;;;8.60;99.90;;;;;;5048698;28;20036;-74
2022/02/06 09:08:57;;;;;;;14.73;3.45;;;8.60;99.90;;;;;;5049608;28;20377;-74
2022/02/06 09:11:28;;;;;;;17.00;3.58;;;8.60;99.90;;;;;;5032032;28;20028;-74
2022/02/06 09:13:55;;;;;;;18.13;3.17;;;8.50;99.90;;;;;;5046475;28;20032;-73
2022/02/06 09:16:23;;;;;;;15.05;3.17;;;8.50;99.90;;;;;;5050473;28;20743;-74
2022/02/06 09:18:49;;;;;;;15.13;2.78;;;8.50;99.90;;;;;;5047489;28;20032;-73
2022/02/06 09:21:16;;;;;;;8.10;1.85;;;8.50;99.90;;;;;;5049807;28;20049;-74
2022/02/06 09:23:42;;;;;;;14.55;3.00;;;8.50;99.90;;;;;;5031057;28;20041;-74
2022/02/06 09:26:08;;;;;;;14.48;2.55;;;8.50;99.90;;;;;;5051794;28;20382;-74
2022/02/06 09:28:33;;;;;;;11.57;2.17;;;8.50;99.90;;;;;;5041168;28;20033;-73
2022/02/06 09:30:59;;;;;;;9.68;1.88;;;8.60;99.90;;;;;;5032429;28;20033;-74
2022/02/06 09:35:51;;;;;;;10.10;2.33;;;8.70;99.90;;;;;;5049444;28;20486;-74
2022/02/06 09:38:16;;;;;;;8.77;2.40;;;8.60;99.90;;;;;;5048451;28;20083;-73
2022/02/06 09:40:45;;;;;;;7.53;2.28;;;8.60;99.90;;;;;;5049901;28;20064;-73
2022/02/06 09:43:12;;;;;;;10.15;2.75;;;8.60;99.90;;;;;;5046439;28;20064;-73
2022/02/06 09:45:41;;;;;;;8.20;2.00;;;8.60;99.90;;;;;;5050877;28;20041;-73
2022/02/06 09:48:11;;;;;;;7.55;1.83;;;8.60;99.90;;;;;;5049835;28;20041;-73
2022/02/06 09:50:37;;;;;;;7.28;1.67;;;8.60;99.90;;;;;;5048560;28;20473;-74
2022/02/06 09:53:03;;;;;;;7.75;2.25;;;8.60;99.90;;;;;;5050230;28;20044;-73
2022/02/06 09:55:30;;;;;;;9.27;2.05;;;8.60;99.90;;;;;;5051247;28;20119;-73
2022/02/06 10:00:37;;;;;;;12.65;2.40;;;8.60;99.90;;;;;;5047663;28;20072;-73
2022/02/06 10:03:10;;;;;;;10.05;1.73;;;8.60;99.90;;;;;;5053958;28;20452;-73
2022/02/06 10:05:38;;;;;;;7.75;1.38;;;8.60;99.90;;;;;;5052528;28;20111;-72
2022/02/06 10:08:24;;;;;;;8.13;1.88;;;8.70;99.90;;;;;;5070714;28;20079;-73
2022/02/06 10:11:03;;;;;;;7.20;1.95;;;8.70;99.90;;;;;;5053137;28;20067;-73
2022/02/06 10:13:34;;;;;;;8.23;2.22;;;8.80;99.90;;;;;;5051831;28;20043;-73
2022/02/06 10:16:00;;;;;;;6.07;1.35;;;8.80;99.90;;;;;;5051059;28;20048;-73
2022/02/06 10:18:27;;;;;;;8.60;1.65;;;8.70;99.90;;;;;;5051343;28;20078;-73
2022/02/06 10:20:53;;;;;;;8.85;1.60;;;8.70;99.90;;;;;;5053123;28;20084;-73
2022/02/06 10:23:44;;;;;;;8.68;1.88;;;8.70;99.90;;;;;;5051584;28;20047;-73
2022/02/06 10:26:34;;;;;;;4.10;1.48;;;8.70;99.90;;;;;;5052156;28;20033;-73
2022/02/06 10:31:42;;;;;;;4.95;2.00;;;8.70;99.90;;;;;;5052579;28;20052;-73
2022/02/06 10:34:20;;;;;;;9.40;1.80;;;8.70;99.90;;;;;;5051491;28;20071;-73
2022/02/06 10:36:46;;;;;;;7.97;1.20;;;8.70;99.90;;;;;;5049763;28;20032;-73
2022/02/06 10:39:15;;;;;;;6.22;1.42;;;8.80;99.90;;;;;;5053333;28;20040;-73
2022/02/06 10:41:47;;;;;;;5.93;1.73;;;8.90;99.90;;;;;;5051159;28;20049;-73
2022/02/06 10:44:14;;;;;;;6.10;1.60;;;8.90;99.90;;;;;;5048592;28;20052;-73
2022/02/06 10:46:54;;;;;;;6.63;1.45;;;8.80;99.90;;;;;;5046854;28;20060;-73
2022/02/06 10:49:20;;;;;;;2.75;0.82;;;8.70;99.90;;;;;;5052597;28;20336;-72
2022/02/06 10:51:49;;;;;;;2.55;0.88;;;8.50;99.90;;;;;;5048926;28;20093;-72
2022/02/06 10:54:30;;;;;;;4.53;0.57;;;8.30;99.90;;;;;;5051292;28;20037;-73
2022/02/06 10:57:04;;;;;;;2.22;0.50;;;8.10;99.90;;;;;;5068596;28;20056;-72
2022/02/06 10:59:57;;;;;;;2.33;0.30;;;7.90;99.90;;;;;;5048918;28;20411;-73
2022/02/06 11:02:26;;;;;;;1.35;0.40;;;7.70;99.90;;;;;;5049359;28;20095;-73
2022/02/06 11:05:18;;;;;;;2.20;0.43;;;7.60;99.90;;;;;;5050887;28;20057;-72
2022/02/06 11:07:58;;;;;;;0.90;0.32;;;7.40;99.90;;;;;;5053181;28;20500;-72
2022/02/06 11:10:25;;;;;;;1.23;0.50;;;7.30;99.90;;;;;;5046211;28;20028;-73
2022/02/06 11:12:56;;;;;;;2.97;0.57;;;7.20;99.90;;;;;;5049782;28;20512;-73
2022/02/06 11:15:31;;;;;;;3.08;0.55;;;7.20;99.90;;;;;;5046436;28;20567;-73
2022/02/06 11:18:13;;;;;;;3.20;0.75;;;7.20;99.90;;;;;;5051179;28;20044;-73
2022/02/06 11:20:56;;;;;;;1.85;0.47;;;7.10;99.90;;;;;;5034887;28;20674;-73
2022/02/06 11:23:22;;;;;;;2.42;0.47;;;7.10;99.90;;;;;;5038387;28;20045;-73
2022/02/06 11:25:50;;;;;;;2.45;0.47;;;6.90;99.90;;;;;;5046075;28;20094;-73
2022/02/06 11:28:17;;;;;;;1.95;0.60;;;6.80;99.90;;;;;;5045936;28;20040;-73
2022/02/06 11:30:43;;;;;;;3.80;0.55;;;6.80;99.90;;;;;;5051516;28;20037;-73
2022/02/06 11:33:09;;;;;;;2.95;0.50;;;6.80;99.90;;;;;;5051537;28;20047;-73
2022/02/06 11:35:42;;;;;;;2.55;0.32;;;6.70;99.90;;;;;;5047400;28;20067;-73
2022/02/06 11:44:33;;;;;;;1.90;0.38;;;6.70;99.90;;;;;;5048986;28;20572;-73
2022/02/06 11:47:16;;;;;;;3.50;0.57;;;6.70;99.90;;;;;;5053862;28;20474;-73
2022/02/06 11:49:45;;;;;;;3.08;0.55;;;6.70;99.90;;;;;;5046583;28;20474;-73
2022/02/06 11:52:11;;;;;;;2.97;0.50;;;6.70;99.90;;;;;;5034637;28;20222;-73
2022/02/06 11:54:53;;;;;;;2.60;1.15;;;6.80;99.90;;;;;;5051255;28;20490;-73
2022/02/06 11:57:25;;;;;;;2.95;0.60;;;6.80;99.90;;;;;;5052047;28;20501;-73
2022/02/06 12:00:06;;;;;;;2.55;0.40;;;6.80;99.90;;;;;;5051173;28;20044;-72
2022/02/06 12:02:33;;;;;;;2.92;0.40;;;6.90;99.90;;;;;;5049052;28;20426;-73
2022/02/06 12:05:17;;;;;;;1.77;0.43;;;6.90;99.90;;;;;;5051635;28;20052;-72
2022/02/06 12:07:51;;;;;;;1.67;0.40;;;7.00;99.90;;;;;;5029922;28;20066;-72
2022/02/06 12:10:33;;;;;;;2.80;0.55;;;7.00;99.90;;;;;;5047819;28;20569;-73
2022/02/06 12:13:32;;;;;;;3.83;0.40;;;7.00;99.90;;;;;;5063545;28;20056;-72
2022/02/06 12:16:04;;;;;;;1.58;0.45;;;7.00;99.90;;;;;;5049605;28;20056;-73
2022/02/06 12:18:40;;;;;;;1.77;0.45;;;7.10;99.90;;;;;;5041334;28;20058;-73
2022/02/06 12:21:13;;;;;;;2.63;0.70;;;7.10;99.90;;;;;;5050069;28;20033;-73
2022/02/06 12:23:43;;;;;;;1.30;0.80;;;7.00;99.90;;;;;;5049987;28;20036;-72
2022/02/06 12:26:28;;;;;;;4.07;0.93;;;7.00;99.90;;;;;;5035027;28;20070;-73
2022/02/06 12:29:08;;;;;;;1.10;0.55;;;7.00;99.90;;;;;;5049786;28;20044;-73
2022/02/06 12:31:47;;;;;;;3.38;0.80;;;7.00;99.90;;;;;;5051083;28;20045;-73
2022/02/06 12:37:31;;;;;;;2.72;0.60;;;7.10;99.90;;;;;;5048980;28;20059;-72
2022/02/06 12:40:04;;;;;;;2.58;1.02;;;7.10;99.90;;;;;;5048004;28;20044;-72
2022/02/06 12:42:34;;;;;;;4.68;0.50;;;7.20;99.90;;;;;;5045531;28;20047;-73
2022/02/06 12:45:02;;;;;;;1.90;0.60;;;7.30;99.90;;;;;;5027968;28;20065;-73
2022/02/06 12:47:29;;;;;;;5.25;0.68;;;7.30;99.90;;;;;;5048197;28;20087;-72
2022/02/06 12:49:55;;;;;;;4.07;0.60;;;7.30;99.90;;;;;;5049341;28;20504;-72
2022/02/06 12:52:21;;;;;;;5.07;0.80;;;7.40;99.90;;;;;;5050004;28;20040;-72
2022/02/06 12:54:46;;;;;;;3.80;0.52;;;7.40;99.90;;;;;;5049119;28;20040;-72
2022/02/06 12:57:14;;;;;;;2.25;0.60;;;7.50;99.90;;;;;;5044854;28;20047;-72
2022/02/06 12:59:40;;;;;;;3.80;1.08;;;7.50;99.90;;;;;;5049396;28;20048;-72
2022/02/06 13:02:07;;;;;;;6.03;1.05;;;7.60;99.90;;;;;;5050626;28;20482;-72
2022/02/06 13:04:40;;;;;;;5.03;1.00;;;7.60;99.90;;;;;;5049666;28;20135;-73
2022/02/06 13:07:06;;;;;;;4.95;1.00;;;7.60;99.90;;;;;;5048266;28;20420;-72
2022/02/06 13:09:40;;;;;;;6.70;0.88;;;7.60;99.90;;;;;;5052094;28;20462;-73
2022/02/06 13:20:32;;;;;;;4.70;0.70;;;7.70;99.90;;;;;;5042742;28;20052;-72
2022/02/06 13:23:16;;;;;;;2.20;0.55;;;7.70;99.90;;;;;;5040456;28;20048;-72
2022/02/06 13:26:05;;;;;;;6.32;0.82;;;7.70;99.90;;;;;;5040344;28;20048;-73
2022/02/06 13:38:52;;;;;;;6.82;1.05;;;7.60;99.90;;;;;;5050938;28;20127;-72
2022/02/06 13:41:22;;;;;;;8.13;1.08;;;7.70;99.90;;;;;;5055520;28;20098;-73
2022/02/06 13:43:50;;;;;;;7.63;1.23;;;7.70;99.90;;;;;;5075412;28;20073;-72
2022/02/06 13:46:18;;;;;;;5.90;1.30;;;7.60;99.90;;;;;;5044569;28;20039;-72
2022/02/06 13:48:48;;;;;;;8.25;1.85;;;7.80;99.90;;;;;;5051705;28;20438;-72
2022/02/06 13:51:14;;;;;;;9.60;1.40;;;7.80;99.90;;;;;;5053450;28;20049;-72
2022/02/06 13:53:56;;;;;;;7.05;1.30;;;7.90;99.90;;;;;;5053153;28;20082;-73
2022/02/06 13:56:22;;;;;;;8.82;1.23;;;7.90;99.90;;;;;;5052855;28;20041;-72
2022/02/06 13:59:18;;;;;;;7.38;1.20;;;7.90;99.90;;;;;;5052041;28;20044;-72
2022/02/06 14:01:53;;;;;;;7.90;1.45;;;8.00;99.90;;;;;;5034844;28;20056;-72
2022/02/06 14:04:22;;;;;;;8.45;1.30;;;8.10;99.90;;;;;;5050184;28;20437;-72
2022/02/06 14:06:54;;;;;;;10.73;1.85;;;8.00;99.90;;;;;;5052770;28;20041;-72
2022/02/06 14:09:30;;;;;;;8.43;1.27;;;8.00;99.90;;;;;;5052500;28;20040;-72
2022/02/06 14:12:04;;;;;;;8.30;1.40;;;8.00;99.90;;;;;;5052937;28;20070;-72
2022/02/06 14:14:32;;;;;;;8.35;1.77;;;8.00;99.90;;;;;;5050378;28;20033;-72
2022/02/06 14:16:59;;;;;;;8.32;1.10;;;8.00;99.90;;;;;;5049624;28;20087;-72
2022/02/06 14:19:44;;;;;;;10.68;2.08;;;8.10;99.90;;;;;;5052476;28;20485;-72
2022/02/06 14:22:15;;;;;;;8.68;1.20;;;8.10;99.90;;;;;;5052389;28;20091;-72
2022/02/06 14:24:48;;;;;;;13.05;1.75;;;8.10;99.90;;;;;;5046564;28;20036;-72
2022/02/06 14:27:24;;;;;;;7.60;1.10;;;8.10;99.90;;;;;;5035686;28;20045;-72
2022/02/06 14:30:10;;;;;;;4.63;0.90;;;8.40;99.90;;;;;;5052257;28;20087;-72
2022/02/06 14:32:54;;;;;;;13.80;1.73;;;8.30;99.90;;;;;;5049691;28;20045;-72
2022/02/06 14:35:19;;;;;;;6.60;1.55;;;8.30;99.90;;;;;;5051683;28;20044;-72
2022/02/06 14:37:53;;;;;;;9.80;1.67;;;8.30;99.90;;;;;;5035964;28;20053;-72
2022/02/06 14:43:16;;;;;;;11.18;1.70;;;8.40;99.90;;;;;;5063916;28;20041;-72
2022/02/06 14:45:50;;;;;;;6.90;1.80;;;8.30;99.90;;;;;;5052161;28;20045;-72
2022/02/06 14:48:17;;;;;;;8.00;1.88;;;8.30;99.90;;;;;;5037803;28;20033;-72
2022/02/06 14:50:47;;;;;;;9.65;1.92;;;8.40;99.90;;;;;;5040936;28;20037;-72
2022/02/06 14:53:14;;;;;;;10.73;1.70;;;8.30;99.90;;;;;;5055373;28;20078;-72
2022/02/06 14:55:42;;;;;;;6.90;1.33;;;8.30;99.90;;;;;;5055066;28;20123;-72
2022/02/06 14:58:08;;;;;;;5.43;1.83;;;8.20;99.90;;;;;;5036495;28;20473;-72
2022/02/06 15:00:34;;;;;;;4.60;1.58;;;8.20;99.90;;;;;;5082404;28;20048;-72
2022/02/06 15:03:00;;;;;;;10.85;1.90;;;8.30;99.90;;;;;;5052912;28;20051;-72
2022/02/06 15:05:25;;;;;;;11.80;1.85;;;8.20;99.90;;;;;;5052040;28;20393;-72
2022/02/06 15:07:51;;;;;;;7.10;1.05;;;8.20;99.90;;;;;;5051349;28;20465;-72
2022/02/06 15:10:16;;;;;;;7.72;1.50;;;8.20;99.90;;;;;;5055127;28;20048;-72
2022/02/06 15:12:42;;;;;;;8.23;1.50;;;8.10;99.90;;;;;;5053638;28;20033;-72
2022/02/06 15:15:09;;;;;;;8.73;3.03;;;8.20;99.90;;;;;;5054852;28;20036;-72
2022/02/06 15:17:34;;;;;;;8.60;1.90;;;8.20;99.90;;;;;;5049668;28;20339;-71
2022/02/06 15:20:00;;;;;;;5.15;0.90;;;8.10;99.90;;;;;;5054834;28;20127;-72
2022/02/06 15:22:26;;;;;;;4.47;1.08;;;8.00;99.90;;;;;;5054340;28;20086;-72
2022/02/06 15:24:51;;;;;;;3.35;0.55;;;7.50;99.90;;;;;;5034972;28;20051;-72
2022/02/06 15:27:17;;;;;;;1.65;0.40;;;7.10;99.90;;;;;;5039961;28;20047;-72
2022/02/06 15:29:42;;;;;;;3.28;0.57;;;6.70;99.90;;;;;;5042508;28;20037;-72
2022/02/06 15:32:08;;;;;;;2.47;0.60;;;6.40;99.90;;;;;;5032134;28;20052;-72
2022/02/06 15:34:34;;;;;;;3.63;0.60;;;6.20;99.90;;;;;;5037872;28;20486;-72
2022/02/06 15:37:03;;;;;;;3.78;0.40;;;6.00;99.90;;;;;;5036556;28;20044;-72
2022/02/06 15:39:37;;;;;;;3.25;0.85;;;5.70;99.90;;;;;;5049745;28;20067;-72
2022/02/06 15:42:12;;;;;;;1.83;0.47;;;5.60;99.90;;;;;;5054314;28;20048;-71